Time;durP1;ratioP1;P1;durP2;ratioP2;P2;SDS_P1;SDS_P2;PMS_P1;PMS_P2;Temp;Humidity;BMP_temperature;BMP_pressure;BME280_temperature;BME280_humidity;BME280_pressure;Samples;Min_cycle;Max_cycle;Signal;HPM_P1;HPM_P2
2021/09/20 00:00:52;;;;;;;11.38;2.03;;;16.10;99.90;;;;;;2072132;28;20057;-71
2021/09/20 00:01:53;;;;;;;16.48;2.15;;;16.10;99.90;;;;;;2078961;28;20128;-72
2021/09/20 00:02:54;;;;;;;11.45;1.88;;;16.10;99.90;;;;;;2086952;28;20370;-72
2021/09/20 00:03:54;;;;;;;11.48;1.75;;;16.10;99.90;;;;;;2088262;28;20071;-72
2021/09/20 00:04:55;;;;;;;14.15;1.73;;;16.10;99.90;;;;;;2087647;28;20017;-72
2021/09/20 00:05:56;;;;;;;20.05;2.47;;;16.10;99.90;;;;;;2088117;28;20400;-72
2021/09/20 00:06:56;;;;;;;12.77;2.03;;;16.10;99.90;;;;;;2088042;28;20389;-71
2021/09/20 00:07:57;;;;;;;15.38;2.10;;;16.10;99.90;;;;;;2087601;28;20472;-72
2021/09/20 00:08:58;;;;;;;13.10;2.08;;;16.10;99.90;;;;;;2086303;28;20029;-73
2021/09/20 00:09:58;;;;;;;10.52;1.75;;;16.10;99.90;;;;;;2080599;28;20021;-71
2021/09/20 00:10:59;;;;;;;17.65;2.25;;;16.00;99.90;;;;;;2085324;28;20048;-72
2021/09/20 00:12:00;;;;;;;14.07;1.90;;;16.00;99.90;;;;;;2091158;28;20024;-73
2021/09/20 00:13:01;;;;;;;11.03;1.93;;;15.90;99.90;;;;;;2084519;28;20484;-72
2021/09/20 00:14:02;;;;;;;12.30;2.00;;;15.90;99.90;;;;;;2082193;28;20287;-73
2021/09/20 00:15:05;;;;;;;13.07;2.63;;;15.90;99.90;;;;;;2082483;28;20021;-72
2021/09/20 00:16:06;;;;;;;19.25;2.65;;;15.90;99.90;;;;;;2081238;28;20580;-73
2021/09/20 00:17:07;;;;;;;20.60;2.38;;;15.90;99.90;;;;;;2085696;28;20108;-72
2021/09/20 00:18:07;;;;;;;15.75;2.25;;;15.90;99.90;;;;;;2082157;28;20024;-72
2021/09/20 00:19:08;;;;;;;13.10;1.90;;;15.80;99.90;;;;;;2090221;28;20032;-73
2021/09/20 00:20:12;;;;;;;10.07;2.05;;;15.80;99.90;;;;;;2084237;28;20524;-72
2021/09/20 00:21:13;;;;;;;10.02;1.88;;;15.80;99.90;;;;;;2080031;28;20036;-74
2021/09/20 00:22:14;;;;;;;10.95;1.70;;;15.80;99.90;;;;;;2082644;28;20389;-72
2021/09/20 00:23:15;;;;;;;12.05;1.95;;;15.80;99.90;;;;;;2076707;28;20025;-70
2021/09/20 00:24:17;;;;;;;11.52;1.90;;;15.80;99.90;;;;;;2089027;28;20029;-71
2021/09/20 00:25:18;;;;;;;13.45;2.25;;;15.80;99.90;;;;;;2089795;28;20110;-71
2021/09/20 00:26:19;;;;;;;16.70;1.75;;;15.80;99.90;;;;;;2082741;28;20037;-72
2021/09/20 00:27:19;;;;;;;15.98;1.75;;;15.80;99.90;;;;;;2082225;28;20428;-73
2021/09/20 00:28:20;;;;;;;12.45;2.10;;;15.80;99.90;;;;;;2080363;28;20108;-73
2021/09/20 00:29:21;;;;;;;9.85;2.10;;;15.80;99.90;;;;;;2074868;28;20076;-72
2021/09/20 00:30:22;;;;;;;10.55;1.70;;;15.80;99.90;;;;;;2078888;28;20101;-73
2021/09/20 00:31:22;;;;;;;13.35;1.95;;;15.80;99.90;;;;;;2082017;28;20013;-73
2021/09/20 00:32:23;;;;;;;11.48;2.13;;;15.80;99.90;;;;;;2076882;28;20037;-71
2021/09/20 00:33:24;;;;;;;8.93;1.70;;;15.80;99.90;;;;;;2081222;28;20045;-73
2021/09/20 00:34:24;;;;;;;12.15;2.22;;;15.70;99.90;;;;;;2080386;28;20443;-73
2021/09/20 00:35:25;;;;;;;12.32;2.00;;;15.70;99.90;;;;;;2082395;28;20017;-73
2021/09/20 00:36:26;;;;;;;14.43;2.15;;;15.70;99.90;;;;;;2082220;28;20076;-72
2021/09/20 00:37:27;;;;;;;13.32;2.25;;;15.70;99.90;;;;;;2081543;28;20026;-73
2021/09/20 00:38:27;;;;;;;17.10;2.28;;;15.70;99.90;;;;;;2081906;28;20017;-72
2021/09/20 00:39:28;;;;;;;7.03;1.55;;;15.60;99.90;;;;;;2081200;28;20032;-73
2021/09/20 00:40:29;;;;;;;13.57;1.88;;;15.60;99.90;;;;;;2081331;28;20021;-73
2021/09/20 00:41:30;;;;;;;12.85;1.83;;;15.60;99.90;;;;;;2081131;28;20026;-72
2021/09/20 00:42:32;;;;;;;14.13;2.45;;;15.60;99.90;;;;;;2084322;28;20449;-72
2021/09/20 00:43:33;;;;;;;18.70;2.45;;;15.60;99.90;;;;;;2082634;28;20018;-72
2021/09/20 00:44:34;;;;;;;9.98;2.15;;;15.60;99.90;;;;;;2089446;28;20559;-73
2021/09/20 00:45:35;;;;;;;7.47;1.48;;;15.50;99.90;;;;;;2088986;28;20017;-72
2021/09/20 00:46:35;;;;;;;12.80;1.92;;;15.50;99.90;;;;;;2082427;28;20100;-73
2021/09/20 00:47:36;;;;;;;13.80;1.65;;;15.60;99.90;;;;;;2086323;28;20017;-72
2021/09/20 00:48:37;;;;;;;13.68;1.85;;;15.50;99.90;;;;;;2074423;28;20018;-72
2021/09/20 00:49:37;;;;;;;12.52;1.70;;;15.50;99.90;;;;;;2087593;28;20025;-73
2021/09/20 00:50:39;;;;;;;13.00;1.83;;;15.60;99.90;;;;;;2089877;28;20033;-73
2021/09/20 00:51:40;;;;;;;13.45;2.78;;;15.60;99.90;;;;;;2082322;28;20025;-74
2021/09/20 00:52:41;;;;;;;15.43;2.40;;;15.60;99.90;;;;;;2078517;28;20508;-72
2021/09/20 00:53:42;;;;;;;8.00;1.90;;;15.60;99.90;;;;;;2073846;28;20464;-74
2021/09/20 00:54:42;;;;;;;11.02;2.03;;;15.60;99.90;;;;;;2073621;28;20030;-72
2021/09/20 00:55:44;;;;;;;12.38;1.92;;;15.60;99.90;;;;;;2079267;28;20017;-73
2021/09/20 00:56:45;;;;;;;10.43;1.67;;;15.60;99.90;;;;;;2078872;28;20456;-73
2021/09/20 00:57:46;;;;;;;15.40;2.38;;;15.60;99.90;;;;;;2078458;28;20054;-72
2021/09/20 00:58:47;;;;;;;9.82;2.22;;;15.60;99.90;;;;;;2074370;28;20058;-72
2021/09/20 00:59:48;;;;;;;11.73;2.00;;;15.60;99.90;;;;;;2095829;28;20033;-72
2021/09/20 01:00:49;;;;;;;9.35;1.92;;;15.60;99.90;;;;;;2097355;28;20024;-72
2021/09/20 01:01:50;;;;;;;11.02;1.95;;;15.70;99.90;;;;;;2078807;28;20038;-72
2021/09/20 01:02:51;;;;;;;12.95;2.25;;;15.70;99.90;;;;;;2086992;28;20547;-73
2021/09/20 01:03:52;;;;;;;15.27;2.20;;;15.70;99.90;;;;;;2082232;28;20045;-72
2021/09/20 01:04:52;;;;;;;14.75;2.45;;;15.70;99.90;;;;;;2082156;28;20025;-72
2021/09/20 01:05:53;;;;;;;15.57;2.42;;;15.70;99.90;;;;;;2082161;28;20025;-73
2021/09/20 01:06:54;;;;;;;15.23;2.13;;;15.80;99.90;;;;;;2081762;28;20034;-71
2021/09/20 01:07:54;;;;;;;11.50;1.98;;;15.70;99.90;;;;;;2085250;28;20024;-73
2021/09/20 01:08:55;;;;;;;12.40;2.33;;;15.70;99.90;;;;;;2082367;28;20025;-72
2021/09/20 01:09:56;;;;;;;12.27;1.92;;;15.70;99.90;;;;;;2076778;28;20042;-73
2021/09/20 01:10:56;;;;;;;10.50;1.75;;;15.70;99.90;;;;;;2074242;28;20601;-72
2021/09/20 01:11:57;;;;;;;22.23;2.88;;;15.70;99.90;;;;;;2081155;28;20493;-71
2021/09/20 01:12:58;;;;;;;19.58;1.98;;;15.70;99.90;;;;;;2081927;28;20031;-70
2021/09/20 01:13:58;;;;;;;21.40;2.53;;;15.70;99.90;;;;;;2081564;28;20547;-72
2021/09/20 01:15:00;;;;;;;18.92;2.17;;;15.70;99.90;;;;;;2077281;28;20026;-74
2021/09/20 01:16:01;;;;;;;12.05;2.22;;;15.60;99.90;;;;;;2071917;28;20022;-74
2021/09/20 01:17:03;;;;;;;13.73;1.70;;;15.60;99.90;;;;;;2072635;28;20105;-72
2021/09/20 01:18:04;;;;;;;14.05;2.40;;;15.60;99.90;;;;;;2073835;28;20502;-72
2021/09/20 01:19:04;;;;;;;9.65;1.75;;;15.60;99.90;;;;;;2073870;28;20030;-74
2021/09/20 01:20:06;;;;;;;11.68;2.17;;;15.60;99.90;;;;;;2073291;28;20025;-72
2021/09/20 01:21:07;;;;;;;10.90;2.13;;;15.60;99.90;;;;;;2068152;28;20041;-75
2021/09/20 01:22:19;;;;;;;9.60;1.95;;;15.60;99.90;;;;;;2072836;28;20037;-71
2021/09/20 01:23:20;;;;;;;13.93;1.80;;;15.60;99.90;;;;;;2068651;28;20022;-73
2021/09/20 01:24:21;;;;;;;10.18;1.70;;;15.60;99.90;;;;;;2073830;28;20486;-73
2021/09/20 01:25:21;;;;;;;14.65;2.05;;;15.60;99.90;;;;;;2073086;28;20021;-72
2021/09/20 01:26:22;;;;;;;8.05;1.60;;;15.60;99.90;;;;;;2073905;28;20029;-72
2021/09/20 01:27:23;;;;;;;15.30;2.00;;;15.60;99.90;;;;;;2073944;28;20019;-72
2021/09/20 01:28:24;;;;;;;10.32;2.28;;;15.60;99.90;;;;;;2070142;28;20034;-72
2021/09/20 01:29:25;;;;;;;16.08;2.30;;;15.60;99.90;;;;;;2073158;28;20533;-72
2021/09/20 01:30:25;;;;;;;9.15;1.50;;;15.60;99.90;;;;;;2072730;28;20156;-72
2021/09/20 01:31:26;;;;;;;14.85;1.75;;;15.50;99.90;;;;;;2081327;28;20014;-73
2021/09/20 01:32:27;;;;;;;14.30;2.72;;;15.50;99.90;;;;;;2073082;28;20022;-73
2021/09/20 01:33:27;;;;;;;12.35;2.15;;;15.50;99.90;;;;;;2071382;28;20537;-72
2021/09/20 01:34:28;;;;;;;15.13;2.70;;;15.40;99.90;;;;;;2072064;28;20025;-73
2021/09/20 01:35:30;;;;;;;18.58;2.40;;;15.40;99.90;;;;;;2063673;28;20593;-72
2021/09/20 01:36:31;;;;;;;12.00;1.70;;;15.40;99.90;;;;;;2065235;28;20033;-72
2021/09/20 01:37:31;;;;;;;13.77;2.95;;;15.40;99.90;;;;;;2065099;28;20760;-74
2021/09/20 01:38:32;;;;;;;14.25;2.05;;;15.40;99.90;;;;;;2067871;28;20106;-72
2021/09/20 01:39:36;;;;;;;13.48;2.10;;;15.40;99.90;;;;;;2073966;28;20534;-71
2021/09/20 01:40:37;;;;;;;13.25;2.00;;;15.40;99.90;;;;;;2068062;28;20106;-73
2021/09/20 01:41:37;;;;;;;13.32;2.20;;;15.40;99.90;;;;;;2065557;28;20053;-73
2021/09/20 01:42:39;;;;;;;11.43;1.90;;;15.40;99.90;;;;;;2071142;28;20060;-72
2021/09/20 01:43:40;;;;;;;16.92;2.75;;;15.40;99.90;;;;;;2073086;28;20532;-72
2021/09/20 01:44:41;;;;;;;15.80;2.38;;;15.40;99.90;;;;;;2073177;28;20033;-72
2021/09/20 01:45:42;;;;;;;16.85;2.42;;;15.40;99.90;;;;;;2067383;28;20469;-73
2021/09/20 01:46:50;;;;;;;11.23;2.22;;;15.40;99.90;;;;;;2067390;28;20077;-74
2021/09/20 01:47:52;;;;;;;15.75;2.28;;;15.50;99.90;;;;;;2065611;28;20105;-73
2021/09/20 01:48:53;;;;;;;10.95;2.05;;;15.50;99.90;;;;;;2076065;28;20021;-71
2021/09/20 01:49:53;;;;;;;12.38;1.90;;;15.50;99.90;;;;;;2073059;28;20075;-74
2021/09/20 01:50:54;;;;;;;18.70;2.72;;;15.60;99.90;;;;;;2066566;28;20030;-74
2021/09/20 01:51:56;;;;;;;17.58;2.58;;;15.60;99.90;;;;;;2064628;28;20485;-73
2021/09/20 01:52:57;;;;;;;13.35;2.58;;;15.60;99.90;;;;;;2074038;28;20022;-72
2021/09/20 01:53:57;;;;;;;14.68;2.38;;;15.70;99.90;;;;;;2073387;28;20046;-73
2021/09/20 01:54:58;;;;;;;12.80;2.08;;;15.70;99.90;;;;;;2073922;28;20036;-72
2021/09/20 01:55:59;;;;;;;14.90;2.33;;;15.60;99.90;;;;;;2072851;28;20401;-72
2021/09/20 01:56:59;;;;;;;19.77;3.00;;;15.70;99.90;;;;;;2073016;28;20029;-76
2021/09/20 01:58:00;;;;;;;22.13;3.17;;;15.70;99.90;;;;;;2073796;28;20018;-72
2021/09/20 01:59:02;;;;;;;21.00;3.20;;;15.70;99.90;;;;;;2069572;28;20044;-73
2021/09/20 02:00:05;;;;;;;15.15;2.08;;;15.70;99.90;;;;;;2065840;28;20022;-72
2021/09/20 02:01:06;;;;;;;15.02;2.35;;;15.70;99.90;;;;;;2070280;28;20034;-71
2021/09/20 02:02:07;;;;;;;6.28;2.13;;;15.70;99.90;;;;;;2073085;28;20576;-71
2021/09/20 02:03:07;;;;;;;16.70;2.75;;;15.70;99.90;;;;;;2073914;28;20089;-73
2021/09/20 02:04:08;;;;;;;15.45;2.28;;;15.70;99.90;;;;;;2072477;28;20036;-72
2021/09/20 02:05:11;;;;;;;16.10;3.00;;;15.70;99.90;;;;;;2065159;28;20018;-72
2021/09/20 02:06:11;;;;;;;20.73;2.55;;;15.70;99.90;;;;;;2072746;28;20505;-72
2021/09/20 02:07:12;;;;;;;16.90;2.20;;;15.70;99.90;;;;;;2073033;28;20017;-73
2021/09/20 02:08:13;;;;;;;13.82;2.35;;;15.70;99.90;;;;;;2069799;28;20106;-73
2021/09/20 02:09:13;;;;;;;17.58;2.85;;;15.70;99.90;;;;;;2073634;28;20498;-73
2021/09/20 02:10:15;;;;;;;13.77;2.72;;;15.60;99.90;;;;;;2072730;28;20113;-72
2021/09/20 02:11:16;;;;;;;;;;;15.70;99.90;;;;;;2073342;28;20017;-72
2021/09/20 02:12:17;;;;;;;13.27;2.22;;;15.70;99.90;;;;;;2073748;28;20324;-73
2021/09/20 02:13:18;;;;;;;14.23;2.30;;;15.70;99.90;;;;;;2072564;28;20724;-73
2021/09/20 02:14:18;;;;;;;20.30;3.65;;;15.70;99.90;;;;;;2073549;28;20061;-73
2021/09/20 02:15:19;;;;;;;15.50;2.05;;;15.70;99.90;;;;;;2073378;28;20026;-74
2021/09/20 02:16:20;;;;;;;13.18;2.42;;;15.70;99.90;;;;;;2073732;28;20022;-73
2021/09/20 02:17:21;;;;;;;17.67;3.05;;;15.70;99.90;;;;;;2069664;28;20048;-71
2021/09/20 02:18:22;;;;;;;13.82;2.75;;;15.80;99.90;;;;;;2070110;28;20076;-73
2021/09/20 02:19:22;;;;;;;21.00;2.63;;;15.80;99.90;;;;;;2073421;28;20378;-72
2021/09/20 02:20:23;;;;;;;20.98;2.80;;;15.80;99.90;;;;;;2072631;28;20025;-72
2021/09/20 02:21:24;;;;;;;17.65;2.70;;;15.80;99.90;;;;;;2072638;28;20057;-73
2021/09/20 02:22:25;;;;;;;14.43;3.10;;;15.80;99.90;;;;;;2073539;28;20049;-74
2021/09/20 02:23:25;;;;;;;13.90;2.63;;;15.80;99.90;;;;;;2073916;28;20512;-73
2021/09/20 02:24:26;;;;;;;17.55;2.95;;;15.80;99.90;;;;;;2073950;28;20022;-72
2021/09/20 02:25:27;;;;;;;17.40;2.50;;;15.80;99.90;;;;;;2072980;28;20105;-73
2021/09/20 02:26:27;;;;;;;20.45;2.28;;;15.80;99.90;;;;;;2069350;28;20030;-73
2021/09/20 02:27:28;;;;;;;24.45;2.90;;;15.90;99.90;;;;;;2070898;28;20040;-74
2021/09/20 02:28:29;;;;;;;18.85;2.78;;;15.90;99.90;;;;;;2071594;28;20025;-73
2021/09/20 02:29:30;;;;;;;17.08;2.80;;;15.90;99.90;;;;;;2073662;28;20018;-72
2021/09/20 02:30:31;;;;;;;15.57;2.45;;;15.90;99.90;;;;;;2073577;28;20049;-74
2021/09/20 02:31:31;;;;;;;25.67;3.20;;;15.90;99.90;;;;;;2073745;28;20066;-74
2021/09/20 02:32:34;;;;;;;24.35;3.65;;;16.00;99.90;;;;;;2079131;28;20077;-74
2021/09/20 02:33:37;;;;;;;16.77;3.13;;;15.90;99.90;;;;;;2081338;28;20033;-73
2021/09/20 02:34:37;;;;;;;20.45;2.90;;;16.00;99.90;;;;;;2072415;28;20505;-73
2021/09/20 02:35:38;;;;;;;21.45;2.78;;;16.00;99.90;;;;;;2066661;28;20022;-73
2021/09/20 02:36:39;;;;;;;18.63;2.47;;;16.00;99.90;;;;;;2070104;28;20056;-73
2021/09/20 02:37:40;;;;;;;20.45;3.28;;;16.00;99.90;;;;;;2073148;28;20064;-73
2021/09/20 02:38:41;;;;;;;13.97;2.93;;;16.00;99.90;;;;;;2066003;28;20030;-72
2021/09/20 02:39:41;;;;;;;18.63;3.13;;;15.90;99.90;;;;;;2073448;28;20782;-72
2021/09/20 02:40:42;;;;;;;20.15;3.53;;;15.90;99.90;;;;;;2068149;28;20033;-73
2021/09/20 02:41:43;;;;;;;18.27;3.03;;;15.90;99.90;;;;;;2070706;28;20037;-73
2021/09/20 02:42:44;;;;;;;21.95;2.72;;;15.90;99.90;;;;;;2072633;28;20053;-73
2021/09/20 02:43:45;;;;;;;17.85;3.08;;;15.90;99.90;;;;;;2073753;28;20093;-73
2021/09/20 02:44:47;;;;;;;24.95;3.17;;;15.90;99.90;;;;;;2064554;28;20030;-72
2021/09/20 02:45:48;;;;;;;28.35;3.85;;;15.90;99.90;;;;;;2064665;28;20022;-73
2021/09/20 02:46:49;;;;;;;19.67;3.38;;;15.90;99.90;;;;;;2065532;28;20033;-74
2021/09/20 02:47:50;;;;;;;21.77;2.88;;;16.00;99.90;;;;;;2070138;28;20018;-72
2021/09/20 02:48:50;;;;;;;17.20;2.92;;;16.00;99.90;;;;;;2072766;28;20029;-76
2021/09/20 02:49:51;;;;;;;17.67;3.67;;;16.00;99.90;;;;;;2070360;28;20068;-74
2021/09/20 02:50:53;;;;;;;22.58;3.63;;;16.00;99.90;;;;;;2067308;28;20026;-72
2021/09/20 02:51:54;;;;;;;23.42;3.00;;;16.00;99.90;;;;;;2066111;28;20030;-72
2021/09/20 02:52:54;;;;;;;23.40;2.88;;;16.00;99.90;;;;;;2072875;28;20485;-72
2021/09/20 02:53:56;;;;;;;21.95;3.30;;;15.90;99.90;;;;;;2073487;28;20026;-72
2021/09/20 02:54:57;;;;;;;25.45;3.22;;;15.90;99.90;;;;;;2073371;28;20021;-73
2021/09/20 02:55:58;;;;;;;24.20;3.20;;;15.90;99.90;;;;;;2072653;28;20026;-72
2021/09/20 02:56:58;;;;;;;17.23;2.45;;;15.90;99.90;;;;;;2071021;28;20603;-73
2021/09/20 02:58:00;;;;;;;16.50;3.30;;;15.90;99.90;;;;;;2067652;28;20022;-72
2021/09/20 02:59:01;;;;;;;16.02;2.58;;;15.90;99.90;;;;;;2068761;28;20029;-72
2021/09/20 03:00:03;;;;;;;26.23;3.10;;;15.90;99.90;;;;;;2073024;28;20397;-73
2021/09/20 03:01:04;;;;;;;18.38;2.92;;;16.00;99.90;;;;;;2073621;28;20543;-73
2021/09/20 03:02:04;;;;;;;21.92;2.90;;;16.00;99.90;;;;;;2066838;28;20050;-73
2021/09/20 03:03:08;;;;;;;19.40;4.00;;;16.00;99.90;;;;;;2070021;28;20109;-74
2021/09/20 03:04:09;;;;;;;22.75;3.60;;;16.00;99.90;;;;;;2067691;28;20026;-73
2021/09/20 03:05:10;;;;;;;23.17;3.03;;;16.00;99.90;;;;;;2073179;28;20474;-73
2021/09/20 03:06:10;;;;;;;27.70;3.05;;;16.00;99.90;;;;;;2073137;28;20025;-73
2021/09/20 03:07:11;;;;;;;18.10;2.65;;;16.00;99.90;;;;;;2073626;28;20050;-72
2021/09/20 03:08:12;;;;;;;25.42;3.08;;;16.00;99.90;;;;;;2073210;28;20024;-72
2021/09/20 03:09:12;;;;;;;18.63;3.80;;;16.00;99.90;;;;;;2072079;28;20386;-72
2021/09/20 03:10:13;;;;;;;18.95;3.15;;;16.00;99.90;;;;;;2069526;28;20034;-72
2021/09/20 03:11:14;;;;;;;20.75;3.30;;;16.00;99.90;;;;;;2066999;28;20030;-73
2021/09/20 03:12:14;;;;;;;23.80;3.42;;;15.90;99.90;;;;;;2065251;28;20033;-73
2021/09/20 03:13:15;;;;;;;17.98;2.80;;;15.90;99.90;;;;;;2069620;28;20029;-73
2021/09/20 03:14:16;;;;;;;26.05;3.13;;;15.90;99.90;;;;;;2072552;28;20034;-71
2021/09/20 03:15:16;;;;;;;19.23;3.03;;;15.90;99.90;;;;;;2072483;28;20029;-71
2021/09/20 03:16:17;;;;;;;24.13;3.42;;;15.90;99.90;;;;;;2072570;28;20026;-73
2021/09/20 03:17:18;;;;;;;26.13;3.33;;;15.90;99.90;;;;;;2068609;28;20505;-72
2021/09/20 03:18:18;;;;;;;26.80;3.38;;;15.90;99.90;;;;;;2073020;28;20014;-74
2021/09/20 03:19:19;;;;;;;20.73;3.63;;;15.90;99.90;;;;;;2067862;28;20020;-73
2021/09/20 03:20:20;;;;;;;22.35;3.10;;;15.90;99.90;;;;;;2071777;28;20032;-71
2021/09/20 03:21:24;;;;;;;18.15;2.67;;;15.80;99.90;;;;;;2072191;28;20057;-73
2021/09/20 03:22:25;;;;;;;22.88;3.08;;;15.80;99.90;;;;;;2072269;28;20029;-71
2021/09/20 03:23:25;;;;;;;16.02;3.50;;;15.80;99.90;;;;;;2069227;28;20031;-72
2021/09/20 03:24:27;;;;;;;28.38;3.78;;;15.80;99.90;;;;;;2068561;28;20085;-73
2021/09/20 03:25:27;;;;;;;22.27;3.22;;;15.80;99.90;;;;;;2073289;28;20060;-73
2021/09/20 03:26:28;;;;;;;20.05;3.97;;;15.80;99.90;;;;;;2073251;28;20720;-72
2021/09/20 03:27:29;;;;;;;17.25;2.45;;;15.80;99.90;;;;;;2072770;28;20030;-73
2021/09/20 03:28:30;;;;;;;22.35;3.20;;;15.80;99.90;;;;;;2072569;28;20570;-72
2021/09/20 03:29:31;;;;;;;17.50;3.03;;;15.80;99.90;;;;;;2064529;28;20022;-73
2021/09/20 03:30:31;;;;;;;21.00;3.22;;;15.70;99.90;;;;;;2072570;28;20033;-72
2021/09/20 03:31:33;;;;;;;19.45;3.55;;;15.70;99.90;;;;;;2073508;28;20021;-72
2021/09/20 03:32:34;;;;;;;20.63;2.80;;;15.70;99.90;;;;;;2072953;28;20041;-71
2021/09/20 03:33:35;;;;;;;23.88;3.00;;;15.70;99.90;;;;;;2072602;28;20029;-72
2021/09/20 03:34:35;;;;;;;25.45;3.35;;;15.70;99.90;;;;;;2064699;28;20022;-72
2021/09/20 03:35:36;;;;;;;24.75;3.83;;;15.70;99.90;;;;;;2071461;28;20067;-73
2021/09/20 03:36:37;;;;;;;24.33;3.35;;;15.70;99.90;;;;;;2072867;28;20052;-74
2021/09/20 03:37:38;;;;;;;21.63;3.50;;;15.70;99.90;;;;;;2070617;28;20076;-73
2021/09/20 03:38:39;;;;;;;20.57;3.57;;;15.70;99.90;;;;;;2069858;28;20022;-72
2021/09/20 03:39:39;;;;;;;17.60;2.63;;;15.70;99.90;;;;;;2072669;28;20305;-72
2021/09/20 03:40:40;;;;;;;19.33;2.85;;;15.70;99.90;;;;;;2067146;28;20023;-75
2021/09/20 03:41:41;;;;;;;20.08;3.17;;;15.70;99.90;;;;;;2072633;28;20604;-73
2021/09/20 03:42:42;;;;;;;22.13;3.55;;;15.70;99.90;;;;;;2072393;28;20172;-72
2021/09/20 03:43:43;;;;;;;18.45;3.17;;;15.70;99.90;;;;;;2072881;28;20091;-73
2021/09/20 03:44:44;;;;;;;20.98;3.53;;;15.70;99.90;;;;;;2065374;28;20027;-72
2021/09/20 03:45:44;;;;;;;17.83;2.70;;;15.60;99.90;;;;;;2070916;28;20028;-73
2021/09/20 03:46:45;;;;;;;21.52;3.50;;;15.60;99.90;;;;;;2071384;28;20048;-73
2021/09/20 03:47:46;;;;;;;16.45;2.67;;;15.70;99.90;;;;;;2077350;28;20072;-72
2021/09/20 03:48:47;;;;;;;22.42;3.88;;;15.70;99.90;;;;;;2082203;28;20629;-73
2021/09/20 03:49:48;;;;;;;17.90;3.03;;;15.70;99.90;;;;;;2073907;28;20503;-71
2021/09/20 03:50:49;;;;;;;23.20;2.95;;;15.80;99.90;;;;;;2072236;28;20025;-73
2021/09/20 03:51:49;;;;;;;21.95;3.38;;;15.80;99.90;;;;;;2074545;28;20501;-72
2021/09/20 03:52:50;;;;;;;25.00;3.63;;;15.80;99.90;;;;;;2073020;28;20026;-72
2021/09/20 03:53:51;;;;;;;19.92;2.97;;;15.80;99.90;;;;;;2066495;28;20030;-73
2021/09/20 03:54:51;;;;;;;18.15;3.00;;;15.80;99.90;;;;;;2073478;28;20029;-72
2021/09/20 03:55:52;;;;;;;26.67;3.65;;;15.70;99.90;;;;;;2081623;28;20131;-71
2021/09/20 03:56:53;;;;;;;23.40;3.05;;;15.70;99.90;;;;;;2082540;28;20090;-72
2021/09/20 03:57:53;;;;;;;19.27;3.20;;;15.70;99.90;;;;;;2071612;28;20034;-72
2021/09/20 03:58:54;;;;;;;20.35;3.15;;;15.80;99.90;;;;;;2070819;28;20113;-72
2021/09/20 03:59:55;;;;;;;25.85;2.92;;;15.80;99.90;;;;;;2070785;28;20505;-72
2021/09/20 04:00:56;;;;;;;20.40;3.05;;;15.80;99.90;;;;;;2067378;28;20097;-72
2021/09/20 04:01:56;;;;;;;17.83;3.40;;;15.70;99.90;;;;;;2081991;28;20447;-74
2021/09/20 04:02:57;;;;;;;24.27;3.92;;;15.70;99.90;;;;;;2081762;28;20018;-72
2021/09/20 04:04:00;;;;;;;23.77;2.95;;;15.70;99.90;;;;;;2074778;28;20033;-72
2021/09/20 04:05:01;;;;;;;16.50;2.70;;;15.70;99.90;;;;;;2067268;28;20019;-72
2021/09/20 04:06:02;;;;;;;28.02;3.88;;;15.70;99.90;;;;;;2075165;28;20079;-72
2021/09/20 04:07:05;;;;;;;18.75;2.90;;;15.70;99.90;;;;;;2081229;28;20124;-72
2021/09/20 04:08:08;;;;;;;19.98;2.85;;;15.70;99.90;;;;;;2073531;28;20014;-73
2021/09/20 04:09:08;;;;;;;19.95;2.90;;;15.70;99.90;;;;;;2073882;28;20056;-73
2021/09/20 04:10:10;;;;;;;12.20;2.33;;;15.70;99.90;;;;;;2073055;28;20026;-72
2021/09/20 04:11:10;;;;;;;30.10;4.32;;;15.70;99.90;;;;;;2064575;28;20065;-72
2021/09/20 04:12:11;;;;;;;25.63;3.90;;;15.70;99.90;;;;;;2063715;28;20034;-72
2021/09/20 04:13:12;;;;;;;24.20;3.10;;;15.80;99.90;;;;;;2073721;28;20046;-73
2021/09/20 04:14:12;;;;;;;18.67;2.67;;;15.80;99.90;;;;;;2082220;28;20029;-73
2021/09/20 04:15:14;;;;;;;25.08;3.75;;;15.80;99.90;;;;;;2090133;28;20032;-72
2021/09/20 04:16:14;;;;;;;29.35;3.42;;;15.80;99.90;;;;;;2086979;28;20025;-71
2021/09/20 04:17:15;;;;;;;25.20;3.22;;;15.80;99.90;;;;;;2067343;28;20421;-73
2021/09/20 04:18:16;;;;;;;25.58;4.13;;;15.90;99.90;;;;;;2072314;28;20022;-72
2021/09/20 04:19:16;;;;;;;24.73;3.33;;;15.90;99.90;;;;;;2074332;28;20088;-72
2021/09/20 04:20:17;;;;;;;20.55;3.30;;;15.90;99.90;;;;;;2073804;28;20030;-72
2021/09/20 04:21:18;;;;;;;20.98;2.80;;;15.90;99.90;;;;;;2073723;28;20022;-71
2021/09/20 04:22:18;;;;;;;23.17;3.13;;;15.90;99.90;;;;;;2074462;28;20478;-72
2021/09/20 04:23:22;;;;;;;16.90;4.07;;;15.90;99.90;;;;;;2066357;28;20398;-73
2021/09/20 04:24:23;;;;;;;19.33;3.67;;;15.90;99.90;;;;;;2065300;28;20055;-72
2021/09/20 04:25:23;;;;;;;28.17;4.07;;;15.90;99.90;;;;;;2075430;28;20084;-72
2021/09/20 04:26:24;;;;;;;25.92;3.30;;;15.90;99.90;;;;;;2081530;28;20048;-72
2021/09/20 04:27:25;;;;;;;25.35;2.83;;;15.90;99.90;;;;;;2073151;28;20025;-72
2021/09/20 04:28:26;;;;;;;16.45;3.30;;;15.80;99.90;;;;;;2073961;28;20022;-72
2021/09/20 04:29:27;;;;;;;21.10;3.28;;;15.80;99.90;;;;;;2073636;28;20026;-73
2021/09/20 04:30:27;;;;;;;23.35;3.30;;;15.90;99.90;;;;;;2068910;28;20030;-73
2021/09/20 04:31:28;;;;;;;26.58;3.78;;;15.90;99.90;;;;;;2066482;28;20114;-73
2021/09/20 04:32:29;;;;;;;24.95;3.10;;;15.90;99.90;;;;;;2078472;28;20022;-72
2021/09/20 04:33:29;;;;;;;12.48;2.45;;;15.90;99.90;;;;;;2081962;28;20028;-73
2021/09/20 04:34:30;;;;;;;21.83;2.78;;;15.90;99.90;;;;;;2074365;28;20709;-71
2021/09/20 04:35:31;;;;;;;18.45;2.78;;;15.90;99.90;;;;;;2073900;28;20432;-71
2021/09/20 04:36:32;;;;;;;30.67;4.85;;;15.90;99.90;;;;;;2074373;28;20100;-72
2021/09/20 04:37:32;;;;;;;24.45;2.63;;;15.90;99.90;;;;;;2080110;28;20021;-72
2021/09/20 04:38:33;;;;;;;18.98;3.13;;;15.90;99.90;;;;;;2079934;28;20481;-72
2021/09/20 04:39:34;;;;;;;22.17;3.00;;;15.90;99.90;;;;;;2074116;28;20030;-72
2021/09/20 04:40:36;;;;;;;20.00;2.97;;;15.90;99.90;;;;;;2073236;28;20022;-72
2021/09/20 04:41:39;;;;;;;;;;;15.90;99.90;;;;;;2074228;28;20030;-72
2021/09/20 04:42:39;;;;;;;22.23;3.15;;;15.90;99.90;;;;;;2084700;28;19909;-73
2021/09/20 04:43:40;;;;;;;22.58;3.67;;;15.80;99.90;;;;;;2082032;28;20410;-73
2021/09/20 04:44:41;;;;;;;16.90;3.42;;;15.80;99.90;;;;;;2073234;28;20696;-72
2021/09/20 04:45:42;;;;;;;19.23;3.03;;;15.80;99.90;;;;;;2073124;28;20056;-72
2021/09/20 04:46:43;;;;;;;20.30;3.35;;;15.80;99.90;;;;;;2069921;28;20022;-71
2021/09/20 04:47:43;;;;;;;20.98;3.17;;;15.80;99.90;;;;;;2069907;28;20509;-72
2021/09/20 04:48:44;;;;;;;26.38;3.25;;;15.80;99.90;;;;;;2074104;28;20065;-72
2021/09/20 04:49:45;;;;;;;27.05;3.60;;;15.80;99.90;;;;;;2080267;28;20050;-73
2021/09/20 04:50:46;;;;;;;24.10;3.45;;;15.80;99.90;;;;;;2066665;28;20029;-71
2021/09/20 04:51:47;;;;;;;17.80;3.33;;;15.80;99.90;;;;;;2067427;28;20110;-71
2021/09/20 04:52:48;;;;;;;16.05;3.35;;;15.80;99.90;;;;;;2071365;28;20022;-72
2021/09/20 04:53:49;;;;;;;22.35;3.47;;;15.80;99.90;;;;;;2074200;28;20022;-73
2021/09/20 04:54:49;;;;;;;18.48;3.17;;;15.80;99.90;;;;;;2073987;28;20512;-73
2021/09/20 04:55:50;;;;;;;21.85;2.90;;;15.80;99.90;;;;;;2074171;28;20022;-73
2021/09/20 04:56:51;;;;;;;31.38;4.55;;;15.80;99.90;;;;;;2073605;28;20030;-72
2021/09/20 04:57:52;;;;;;;16.15;2.45;;;15.90;99.90;;;;;;2072853;28;20049;-73
2021/09/20 04:58:53;;;;;;;16.23;2.72;;;15.90;99.90;;;;;;2068892;28;20088;-73
2021/09/20 04:59:53;;;;;;;19.92;3.28;;;15.90;99.90;;;;;;2073709;28;20022;-71
2021/09/20 05:00:55;;;;;;;27.17;3.75;;;15.90;99.90;;;;;;2067683;28;20069;-72
2021/09/20 05:01:56;;;;;;;17.80;2.88;;;15.90;99.90;;;;;;2073650;28;20127;-73
2021/09/20 05:02:57;;;;;;;23.73;4.05;;;16.00;99.90;;;;;;2074064;28;20103;-74
2021/09/20 05:03:57;;;;;;;23.00;3.00;;;16.00;99.90;;;;;;2074362;28;20021;-73
2021/09/20 05:04:58;;;;;;;18.83;4.65;;;16.00;99.90;;;;;;2072786;28;20026;-72
2021/09/20 05:05:59;;;;;;;21.55;3.45;;;16.00;99.90;;;;;;2070817;28;20022;-72
2021/09/20 05:06:59;;;;;;;13.50;2.55;;;16.00;99.90;;;;;;2073565;28;20117;-72
2021/09/20 05:08:00;;;;;;;20.73;3.20;;;16.00;99.90;;;;;;2076904;28;20026;-72
2021/09/20 05:09:02;;;;;;;15.23;2.90;;;16.00;99.90;;;;;;2074124;28;20049;-73
2021/09/20 05:10:03;;;;;;;23.83;3.70;;;16.00;99.90;;;;;;2072862;28;20067;-74
2021/09/20 05:11:04;;;;;;;22.40;3.42;;;16.00;99.90;;;;;;2073234;28;20552;-72
2021/09/20 05:12:05;;;;;;;23.67;2.97;;;16.10;99.90;;;;;;2071142;28;20109;-73
2021/09/20 05:13:06;;;;;;;20.55;3.42;;;16.10;99.90;;;;;;2067563;28;20551;-72
2021/09/20 05:14:06;;;;;;;20.50;3.00;;;16.10;99.90;;;;;;2074379;28;20046;-74